createdAt,value
2019-02-27T00:00:13.847Z,43.33
2019-02-27T00:02:45.355Z,42.13
2019-02-27T00:05:16.036Z,45.80
2019-02-27T00:07:46.131Z,39.63
2019-02-27T00:10:17.119Z,42.03
2019-02-27T00:12:46.998Z,43.77
2019-02-27T00:15:16.875Z,40.17
2019-02-27T00:17:51.095Z,54.47
2019-02-27T00:20:18.177Z,46.77
2019-02-27T00:22:50.627Z,41.23
2019-02-27T00:25:19.697Z,48.60
2019-02-27T00:27:49.977Z,45.90
2019-02-27T00:30:19.843Z,49.13
2019-02-27T00:32:51.297Z,45.50
2019-02-27T00:35:21.322Z,45.60
2019-02-27T00:37:55.175Z,45.50
2019-02-27T00:40:26.860Z,47.73
2019-02-27T00:42:56.601Z,42.10
2019-02-27T00:45:26.630Z,47.87
2019-02-27T00:48:15.562Z,47.57
2019-02-27T00:50:45.528Z,41.07
2019-02-27T00:53:15.302Z,42.73
2019-02-27T00:55:45.086Z,38.57
2019-02-27T00:58:14.813Z,44.37
2019-02-27T01:00:44.595Z,40.30
2019-02-27T01:03:14.287Z,41.23
2019-02-27T01:05:44.090Z,42.10
2019-02-27T01:08:13.955Z,45.97
2019-02-27T01:10:45.319Z,48.33
2019-02-27T01:13:15.481Z,44.50
2019-02-27T01:15:45.387Z,38.67
2019-02-27T01:18:16.366Z,44.27
2019-02-27T01:20:46.645Z,45.20
2019-02-27T01:23:17.548Z,52.20
2019-02-27T01:25:48.300Z,52.83
2019-02-27T01:28:20.701Z,47.33
2019-02-27T01:30:50.575Z,38.83
2019-02-27T01:33:20.412Z,40.10
2019-02-27T01:35:52.142Z,38.57
2019-02-27T01:38:21.518Z,43.67
2019-02-27T01:40:51.641Z,35.57
2019-02-27T01:43:21.939Z,39.40
2019-02-27T01:45:51.869Z,40.33
2019-02-27T01:48:23.821Z,35.90
2019-02-27T01:50:55.301Z,44.83
2019-02-27T01:53:24.992Z,41.97
2019-02-27T01:55:56.373Z,40.50
2019-02-27T01:58:26.329Z,34.57
2019-02-27T02:00:58.150Z,33.90
2019-02-27T02:03:28.142Z,34.33
2019-02-27T02:05:59.300Z,34.87
2019-02-27T02:08:29.677Z,37.20
2019-02-27T02:11:01.381Z,31.90
2019-02-27T02:13:58.923Z,29.00
2019-02-27T02:16:41.554Z,29.03
2019-02-27T02:19:22.585Z,29.93
2019-02-27T02:22:14.157Z,31.80
2019-02-27T02:25:30.558Z,34.57
2019-02-27T02:28:18.695Z,30.17
2019-02-27T02:31:14.446Z,35.40
2019-02-27T02:34:29.865Z,35.13
2019-02-27T02:37:27.856Z,33.70
2019-02-27T02:40:19.738Z,32.97
2019-02-27T02:43:41.968Z,29.10
2019-02-27T02:46:53.092Z,25.37
2019-02-27T02:50:04.945Z,31.53
2019-02-27T02:53:08.871Z,33.67
2019-02-27T02:55:52.901Z,32.97
2019-02-27T02:58:47.164Z,37.03
2019-02-27T03:01:38.118Z,31.13
2019-02-27T03:04:40.541Z,34.77
2019-02-27T03:07:56.599Z,30.47
2019-02-27T03:10:47.682Z,34.17
2019-02-27T03:13:41.633Z,35.10
2019-02-27T03:16:34.919Z,43.80
2019-02-27T03:19:18.444Z,32.60
2019-02-27T03:22:21.766Z,35.70
2019-02-27T03:25:22.922Z,44.50
2019-02-27T03:28:20.075Z,43.73
2019-02-27T03:31:24.154Z,33.13
2019-02-27T03:34:25.346Z,36.03
2019-02-27T03:37:36.165Z,32.03
2019-02-27T03:41:01.021Z,37.57
2019-02-27T03:43:45.654Z,32.50
2019-02-27T03:46:43.224Z,34.30
2019-02-27T03:49:28.115Z,35.87
2019-02-27T03:52:59.844Z,34.57
2019-02-27T03:56:12.881Z,32.57
2019-02-27T03:59:20.118Z,38.00
2019-02-27T04:02:29.915Z,32.97
2019-02-27T04:05:29.879Z,32.67
2019-02-27T04:08:43.504Z,33.97
2019-02-27T04:11:09.030Z,38.90
2019-02-27T04:13:38.846Z,34.90
2019-02-27T04:16:09.029Z,33.93
2019-02-27T04:18:37.395Z,34.70
2019-02-27T04:21:07.255Z,43.93
2019-02-27T04:23:37.551Z,34.67
2019-02-27T04:26:07.468Z,39.37
2019-02-27T04:28:38.134Z,33.33
2019-02-27T04:31:08.009Z,36.97
2019-02-27T04:33:37.722Z,33.00
2019-02-27T04:36:12.320Z,39.47
2019-02-27T04:38:38.998Z,35.93
2019-02-27T04:41:08.714Z,37.77
2019-02-27T04:43:38.580Z,35.53
2019-02-27T04:46:08.332Z,33.17
2019-02-27T04:48:38.282Z,31.90
2019-02-27T04:51:09.390Z,33.40
2019-02-27T04:53:40.687Z,33.53
2019-02-27T04:56:10.729Z,33.43
2019-02-27T04:58:42.765Z,37.30
2019-02-27T05:01:14.453Z,32.47
2019-02-27T05:03:44.267Z,32.03
2019-02-27T05:06:14.473Z,35.80
2019-02-27T05:08:44.972Z,40.00
2019-02-27T05:11:14.856Z,36.00
2019-02-27T05:13:45.311Z,34.83
2019-02-27T05:16:25.043Z,37.10
2019-02-27T05:18:54.858Z,32.77
2019-02-27T05:21:24.703Z,32.87
2019-02-27T05:23:54.458Z,40.23
2019-02-27T05:26:27.054Z,35.07
2019-02-27T05:28:55.714Z,33.27
2019-02-27T05:31:25.573Z,33.00
2019-02-27T05:33:55.431Z,43.97
2019-02-27T05:36:25.374Z,44.60
2019-02-27T05:38:55.213Z,34.00
2019-02-27T05:41:24.997Z,34.50
2019-02-27T05:43:54.902Z,45.67
2019-02-27T05:46:24.603Z,34.13
2019-02-27T05:48:54.346Z,40.23
2019-02-27T05:51:24.070Z,42.20
2019-02-27T05:53:56.171Z,36.70
2019-02-27T05:56:25.414Z,45.23
2019-02-27T05:58:57.503Z,40.93
2019-02-27T06:01:27.280Z,37.33
2019-02-27T06:03:58.767Z,43.27
2019-02-27T06:06:30.902Z,43.80
2019-02-27T06:09:00.642Z,46.63
2019-02-27T06:11:33.122Z,37.97
2019-02-27T06:14:03.121Z,39.13
2019-02-27T06:16:37.017Z,40.13
2019-02-27T06:19:04.464Z,38.50
2019-02-27T06:21:35.721Z,37.63
2019-02-27T06:24:11.610Z,29.50
2019-02-27T06:26:39.446Z,33.80
2019-02-27T06:29:09.570Z,33.03
2019-02-27T06:31:39.526Z,40.27
2019-02-27T06:34:09.296Z,38.20
2019-02-27T06:36:42.027Z,28.67
2019-02-27T06:39:10.588Z,45.13
2019-02-27T06:41:40.330Z,33.90
2019-02-27T06:44:11.038Z,36.20
2019-02-27T06:46:40.783Z,38.37
2019-02-27T06:49:10.511Z,27.57
2019-02-27T06:51:41.844Z,38.33
2019-02-27T06:54:11.569Z,35.77
2019-02-27T06:56:41.351Z,38.33
2019-02-27T06:59:11.471Z,38.23
2019-02-27T07:01:41.159Z,36.67
2019-02-27T07:04:10.879Z,48.17
2019-02-27T07:06:40.578Z,41.93
2019-02-27T07:09:11.628Z,48.53
2019-02-27T07:11:46.225Z,41.73
2019-02-27T07:14:14.930Z,45.87
2019-02-27T07:16:44.845Z,44.23
2019-02-27T07:19:15.849Z,42.20
2019-02-27T07:21:46.374Z,42.87
2019-02-27T07:24:16.109Z,38.00
2019-02-27T07:26:47.574Z,42.80
2019-02-27T07:29:22.094Z,36.67
2019-02-27T07:31:52.076Z,37.33
2019-02-27T07:34:22.481Z,38.80
2019-02-27T07:36:52.590Z,36.03
2019-02-27T07:39:22.531Z,38.53
2019-02-27T07:41:53.736Z,35.47
2019-02-27T07:44:23.487Z,38.53
2019-02-27T07:46:57.199Z,43.17
2019-02-27T07:49:25.273Z,39.27
2019-02-27T07:51:57.817Z,36.10
2019-02-27T07:54:29.140Z,38.37
2019-02-27T07:56:58.575Z,34.63
2019-02-27T07:59:28.367Z,36.53
2019-02-27T08:02:02.303Z,32.63
2019-02-27T08:04:31.039Z,34.53
2019-02-27T08:07:00.814Z,33.50
2019-02-27T08:09:35.879Z,34.40
2019-02-27T08:12:05.706Z,32.57
2019-02-27T08:14:37.892Z,30.87
2019-02-27T08:17:17.258Z,39.10
2019-02-27T08:19:38.747Z,39.13
2019-02-27T08:22:08.476Z,37.13
2019-02-27T08:24:38.276Z,34.57
2019-02-27T08:27:09.690Z,36.73
2019-02-27T08:29:39.572Z,33.40
2019-02-27T08:32:19.323Z,35.93
2019-02-27T08:34:49.045Z,41.57
2019-02-27T08:37:20.248Z,35.63
2019-02-27T08:39:50.180Z,31.20
2019-02-27T08:42:19.975Z,33.13
2019-02-27T08:44:49.890Z,42.73
2019-02-27T08:47:19.610Z,45.70
2019-02-27T08:49:49.366Z,30.80
2019-02-27T08:52:19.091Z,35.70
2019-02-27T08:54:48.921Z,46.33
2019-02-27T08:57:18.628Z,42.93
2019-02-27T08:59:48.404Z,34.13
2019-02-27T09:02:18.271Z,29.53
2019-02-27T09:04:48.134Z,33.10
2019-02-27T09:07:17.944Z,34.30
2019-02-27T09:09:51.148Z,32.20
2019-02-27T09:12:20.083Z,34.33
2019-02-27T09:14:49.872Z,34.97
2019-02-27T09:17:19.587Z,38.87
2019-02-27T09:19:49.306Z,31.50
2019-02-27T09:22:20.844Z,31.23
2019-02-27T09:24:50.657Z,32.17
2019-02-27T09:27:20.415Z,28.70
2019-02-27T09:29:52.329Z,31.20
2019-02-27T09:32:23.206Z,37.43
2019-02-27T09:34:53.279Z,34.37
2019-02-27T09:37:23.093Z,33.10
2019-02-27T09:39:53.880Z,36.50
2019-02-27T09:42:23.566Z,31.20
2019-02-27T09:44:53.410Z,26.53
2019-02-27T09:47:25.856Z,35.87
2019-02-27T09:49:54.706Z,29.57
2019-02-27T09:52:24.719Z,34.83
2019-02-27T09:54:54.915Z,32.27
2019-02-27T09:57:24.850Z,29.23
2019-02-27T09:59:54.617Z,28.27
2019-02-27T10:02:24.331Z,25.13
2019-02-27T10:04:54.114Z,27.23
2019-02-27T10:07:23.873Z,23.17
2019-02-27T10:09:53.804Z,26.97
2019-02-27T10:12:27.056Z,31.23
2019-02-27T10:14:55.134Z,25.63
2019-02-27T10:17:28.507Z,33.77
2019-02-27T10:20:01.433Z,29.83
2019-02-27T10:22:29.345Z,23.77
2019-02-27T10:24:59.060Z,25.07
2019-02-27T10:27:29.429Z,26.63
2019-02-27T10:29:59.395Z,31.73
2019-02-27T10:32:29.354Z,22.00
2019-02-27T10:34:59.077Z,25.03
2019-02-27T10:37:28.965Z,22.20
2019-02-27T10:39:59.190Z,21.87
2019-02-27T10:42:29.018Z,27.60
2019-02-27T10:44:58.811Z,23.47
2019-02-27T10:47:28.586Z,24.13
2019-02-27T10:50:01.691Z,21.90
2019-02-27T10:52:29.931Z,24.17
2019-02-27T10:54:59.719Z,25.60
2019-02-27T10:57:32.529Z,22.50
2019-02-27T11:00:01.375Z,22.83
2019-02-27T11:02:32.722Z,25.63
2019-02-27T11:05:04.112Z,31.10
2019-02-27T11:07:33.920Z,20.60
2019-02-27T11:10:04.368Z,20.73
2019-02-27T11:12:34.487Z,18.80
2019-02-27T11:15:05.355Z,28.80
2019-02-27T11:17:35.364Z,31.60
2019-02-27T11:20:05.246Z,23.97
2019-02-27T11:22:34.981Z,23.60
2019-02-27T11:25:05.157Z,21.20
2019-02-27T11:27:36.332Z,27.03
2019-02-27T11:30:08.684Z,27.87
2019-02-27T11:32:40.292Z,30.47
2019-02-27T11:35:10.179Z,26.30
2019-02-27T11:37:40.067Z,30.60
2019-02-27T11:40:12.131Z,24.27
2019-02-27T11:42:42.174Z,26.33
2019-02-27T11:45:12.744Z,23.20
2019-02-27T11:47:47.778Z,29.40
2019-02-27T11:50:17.843Z,28.13
2019-02-27T11:52:49.353Z,24.33
2019-02-27T11:55:19.589Z,30.07
2019-02-27T11:57:49.544Z,25.03
2019-02-27T12:00:23.472Z,27.60
2019-02-27T12:02:54.506Z,22.93
2019-02-27T12:05:30.275Z,30.80
2019-02-27T12:07:57.017Z,26.20
2019-02-27T12:10:27.222Z,23.37
2019-02-27T12:13:00.688Z,26.67
2019-02-27T12:15:28.612Z,30.13
2019-02-27T12:18:00.742Z,28.53
2019-02-27T12:20:30.102Z,30.10
2019-02-27T12:23:00.084Z,26.47
2019-02-27T12:25:30.309Z,22.30
2019-02-27T12:28:01.742Z,29.73
2019-02-27T12:30:31.659Z,31.27
2019-02-27T12:33:01.506Z,33.37
2019-02-27T12:35:32.523Z,29.03
2019-02-27T12:38:07.228Z,27.17
2019-02-27T12:40:34.104Z,30.67
2019-02-27T12:43:05.190Z,28.60
2019-02-27T12:45:35.159Z,27.00
2019-02-27T12:48:05.208Z,25.90
2019-02-27T12:50:35.129Z,40.03
2019-02-27T12:53:07.324Z,31.67
2019-02-27T12:55:37.066Z,28.53
2019-02-27T12:58:06.922Z,36.50
2019-02-27T13:00:37.063Z,28.40
2019-02-27T13:03:09.339Z,32.93
2019-02-27T13:05:38.548Z,28.63
2019-02-27T13:08:08.432Z,26.80
2019-02-27T13:10:38.259Z,31.40
2019-02-27T13:13:07.987Z,24.13
2019-02-27T13:15:40.590Z,34.10
2019-02-27T13:18:09.368Z,31.23
2019-02-27T13:20:39.898Z,27.37
2019-02-27T13:23:12.594Z,32.87
2019-02-27T13:25:42.395Z,30.53
2019-02-27T13:28:14.630Z,31.43
2019-02-27T13:30:44.365Z,30.97
2019-02-27T13:33:14.081Z,32.80
2019-02-27T13:35:46.083Z,31.07
2019-02-27T13:38:18.536Z,25.87
2019-02-27T13:40:47.371Z,34.00
2019-02-27T13:43:17.081Z,28.77
2019-02-27T13:45:47.583Z,24.47
2019-02-27T13:48:18.021Z,28.33
2019-02-27T13:50:47.844Z,34.43
2019-02-27T13:53:17.562Z,29.07
2019-02-27T13:55:48.117Z,30.97
2019-02-27T13:58:19.199Z,35.33
2019-02-27T14:00:48.975Z,28.27
2019-02-27T14:03:18.870Z,33.27
2019-02-27T14:05:49.926Z,30.60
2019-02-27T14:08:19.779Z,32.33
2019-02-27T14:10:50.526Z,29.40
2019-02-27T14:13:21.313Z,27.77
2019-02-27T14:15:51.487Z,30.73
2019-02-27T14:18:21.271Z,30.73
2019-02-27T14:20:52.858Z,31.97
2019-02-27T14:23:22.797Z,28.47
2019-02-27T14:25:53.699Z,23.83
2019-02-27T14:28:23.452Z,28.00
2019-02-27T14:30:53.686Z,33.80
2019-02-27T14:33:23.599Z,33.10
2019-02-27T14:35:53.353Z,31.23
2019-02-27T14:38:23.164Z,36.10
2019-02-27T14:40:53.036Z,32.47
2019-02-27T14:43:27.059Z,30.80
2019-02-27T14:45:54.246Z,35.57
2019-02-27T14:48:24.053Z,31.83
2019-02-27T14:50:53.810Z,29.17
2019-02-27T14:53:23.717Z,35.87
2019-02-27T14:55:53.507Z,31.67
2019-02-27T14:58:24.991Z,28.80
2019-02-27T15:00:54.848Z,38.53
2019-02-27T15:03:29.233Z,34.57
2019-02-27T15:05:56.938Z,36.83
2019-02-27T15:08:27.193Z,32.83
2019-02-27T15:10:56.979Z,33.00
2019-02-27T15:13:28.344Z,33.73
2019-02-27T15:15:58.331Z,24.83
2019-02-27T15:18:28.151Z,30.90
2019-02-27T15:20:57.896Z,31.07
2019-02-27T15:23:28.372Z,35.07
2019-02-27T15:25:59.281Z,34.07
2019-02-27T15:28:33.002Z,39.30
2019-02-27T15:31:00.444Z,35.20
2019-02-27T15:33:32.731Z,41.60
2019-02-27T15:36:02.510Z,32.97
2019-02-27T15:38:32.375Z,30.83
2019-02-27T15:41:03.311Z,30.07
2019-02-27T15:43:33.548Z,28.93
2019-02-27T15:46:03.495Z,33.10
2019-02-27T15:48:34.940Z,42.80
2019-02-27T15:51:04.826Z,35.47
2019-02-27T15:53:34.799Z,40.63
2019-02-27T15:56:05.408Z,34.83
2019-02-27T15:58:36.216Z,37.47
2019-02-27T16:01:07.770Z,31.63
2019-02-27T16:03:37.554Z,36.00
2019-02-27T16:06:07.410Z,34.00
2019-02-27T16:08:37.315Z,34.00
2019-02-27T16:11:07.222Z,39.10
2019-02-27T16:13:37.251Z,29.27
2019-02-27T16:16:07.156Z,38.63
2019-02-27T16:18:37.723Z,49.77
2019-02-27T16:21:07.695Z,72.00
2019-02-27T16:23:38.121Z,49.23
2019-02-27T16:26:08.502Z,41.80
2019-02-27T16:28:38.326Z,33.17
2019-02-27T16:31:12.530Z,39.40
2019-02-27T16:33:43.802Z,34.47
2019-02-27T16:36:15.760Z,41.83
2019-02-27T16:38:46.133Z,43.40
2019-02-27T16:41:16.406Z,32.43
2019-02-27T16:43:48.317Z,39.47
2019-02-27T16:46:18.717Z,37.53
2019-02-27T16:48:49.735Z,34.53
2019-02-27T16:51:19.534Z,39.67
2019-02-27T16:53:52.388Z,32.67
2019-02-27T16:56:20.876Z,36.00
2019-02-27T16:58:51.699Z,32.87
2019-02-27T17:01:22.595Z,39.60
2019-02-27T17:03:59.337Z,31.63
2019-02-27T17:06:25.403Z,36.97
2019-02-27T17:08:55.185Z,40.13
2019-02-27T17:11:24.992Z,39.80
2019-02-27T17:13:57.718Z,34.77
2019-02-27T17:16:27.291Z,29.13
2019-02-27T17:18:59.169Z,29.43
2019-02-27T17:21:28.487Z,32.77
2019-02-27T17:24:00.525Z,33.57
2019-02-27T17:26:30.870Z,38.67
2019-02-27T17:29:00.739Z,56.50
2019-02-27T17:31:31.740Z,39.40
2019-02-27T17:34:02.485Z,38.80
2019-02-27T17:36:32.661Z,47.90
2019-02-27T17:39:04.414Z,50.77
2019-02-27T17:41:35.794Z,62.77
2019-02-27T17:44:05.679Z,61.60
2019-02-27T17:46:35.467Z,58.10
2019-02-27T17:49:07.222Z,45.43
2019-02-27T17:51:39.553Z,49.30
2019-02-27T17:54:08.182Z,37.63
2019-02-27T17:56:37.951Z,42.30
2019-02-27T17:59:08.458Z,40.50
2019-02-27T18:01:39.318Z,37.20
2019-02-27T18:04:09.076Z,40.80
2019-02-27T18:06:39.014Z,50.17
2019-02-27T18:09:09.723Z,45.37
2019-02-27T18:11:39.606Z,43.33
2019-02-27T18:14:10.367Z,38.47
2019-02-27T18:16:41.198Z,46.60
2019-02-27T18:19:10.970Z,52.73
2019-02-27T18:21:41.090Z,43.87
2019-02-27T18:24:10.923Z,34.63
2019-02-27T18:26:40.826Z,41.17
2019-02-27T18:29:12.210Z,42.53
2019-02-27T18:31:42.239Z,41.83
2019-02-27T18:34:12.294Z,47.37
2019-02-27T18:36:45.798Z,42.03
2019-02-27T18:39:15.621Z,44.83
2019-02-27T18:41:45.851Z,53.40
2019-02-27T18:44:16.358Z,48.20
2019-02-27T18:46:46.507Z,60.63
2019-02-27T18:49:18.544Z,74.33
2019-02-27T18:51:47.814Z,57.57
2019-02-27T18:54:21.742Z,44.37
2019-02-27T18:56:50.211Z,35.50
2019-02-27T18:59:20.104Z,50.50
2019-02-27T19:01:49.892Z,37.00
2019-02-27T19:04:19.769Z,50.83
2019-02-27T19:06:49.530Z,63.53
2019-02-27T19:09:20.210Z,59.30
2019-02-27T19:11:50.876Z,51.70
2019-02-27T19:14:21.414Z,42.30
2019-02-27T19:16:52.184Z,43.43
2019-02-27T19:19:22.643Z,45.30
2019-02-27T19:21:53.242Z,47.63
2019-02-27T19:24:26.698Z,63.30
2019-02-27T19:26:54.610Z,86.67
2019-02-27T19:29:25.343Z,68.40
2019-02-27T19:31:55.146Z,56.27
2019-02-27T19:34:25.001Z,54.23
2019-02-27T19:36:54.993Z,56.13
2019-02-27T19:39:25.082Z,81.87
2019-02-27T19:41:54.802Z,79.43
2019-02-27T19:44:28.550Z,51.60
2019-02-27T19:46:56.802Z,40.47
2019-02-27T19:49:26.575Z,49.67
2019-02-27T19:51:56.276Z,43.47
2019-02-27T19:54:25.975Z,48.10
2019-02-27T19:56:55.846Z,35.87
2019-02-27T19:59:25.715Z,38.47
2019-02-27T20:01:55.731Z,40.77
2019-02-27T20:04:25.452Z,46.50
2019-02-27T20:06:55.166Z,74.33
2019-02-27T20:09:25.316Z,43.87
2019-02-27T20:11:55.227Z,56.10
2019-02-27T20:14:25.316Z,54.77
2019-02-27T20:16:55.960Z,76.13
2019-02-27T20:19:29.015Z,59.80
2019-02-27T20:21:58.615Z,59.07
2019-02-27T20:24:28.878Z,86.73
2019-02-27T20:26:58.730Z,97.70
2019-02-27T20:29:28.594Z,54.47
2019-02-27T20:31:58.482Z,54.83
2019-02-27T20:34:28.162Z,77.90
2019-02-27T20:36:58.016Z,60.47
2019-02-27T20:39:28.202Z,49.17
2019-02-27T20:41:58.114Z,46.90
2019-02-27T20:44:27.898Z,46.53
2019-02-27T20:46:57.623Z,43.60
2019-02-27T20:49:29.016Z,46.30
2019-02-27T20:51:59.811Z,43.77
2019-02-27T20:54:29.598Z,36.20
2019-02-27T20:56:59.412Z,50.17
2019-02-27T20:59:29.124Z,37.47
2019-02-27T21:01:59.048Z,36.13
2019-02-27T21:04:28.771Z,39.87
2019-02-27T21:06:58.541Z,42.30
2019-02-27T21:09:29.303Z,45.03
2019-02-27T21:12:03.478Z,37.67
2019-02-27T21:14:30.697Z,50.03
2019-02-27T21:17:00.400Z,47.13
2019-02-27T21:19:30.106Z,35.73
2019-02-27T21:22:00.070Z,51.30
2019-02-27T21:24:32.170Z,41.07
2019-02-27T21:27:02.062Z,49.43
2019-02-27T21:29:32.005Z,44.53
2019-02-27T21:32:02.370Z,53.80
2019-02-27T21:34:35.286Z,48.17
2019-02-27T21:37:07.221Z,55.97
2019-02-27T21:39:36.683Z,52.33
2019-02-27T21:42:06.398Z,53.13
2019-02-27T21:44:36.126Z,67.77
2019-02-27T21:47:05.934Z,61.63
2019-02-27T21:49:35.834Z,47.27
2019-02-27T21:52:05.741Z,54.37
2019-02-27T21:54:39.286Z,55.57
2019-02-27T21:57:08.378Z,53.47
2019-02-27T21:59:39.816Z,57.03
2019-02-27T22:02:09.809Z,50.90
2019-02-27T22:04:41.201Z,63.80
2019-02-27T22:07:11.035Z,53.30
2019-02-27T22:09:40.865Z,61.83
2019-02-27T22:12:10.649Z,67.27
2019-02-27T22:14:40.438Z,65.73
2019-02-27T22:17:10.158Z,62.67
2019-02-27T22:19:39.977Z,54.77
2019-02-27T22:22:10.002Z,60.40
2019-02-27T22:24:39.805Z,61.27
2019-02-27T22:27:12.836Z,66.03
2019-02-27T22:29:41.267Z,59.73
2019-02-27T22:32:12.036Z,59.30
2019-02-27T22:34:42.660Z,55.73
2019-02-27T22:37:12.370Z,54.10
2019-02-27T22:39:42.143Z,63.53
2019-02-27T22:42:14.523Z,55.00
2019-02-27T22:44:43.468Z,54.63
2019-02-27T22:47:13.298Z,59.07
2019-02-27T22:49:43.174Z,60.30
2019-02-27T22:52:12.909Z,66.70
2019-02-27T22:54:42.696Z,63.43
2019-02-27T22:57:12.670Z,60.53
2019-02-27T22:59:42.350Z,63.17
2019-02-27T23:02:12.296Z,61.93
2019-02-27T23:04:42.386Z,61.07
2019-02-27T23:07:12.342Z,65.40
2019-02-27T23:09:42.128Z,64.87
2019-02-27T23:12:12.071Z,65.77
2019-02-27T23:14:42.026Z,71.57
2019-02-27T23:17:19.154Z,60.60
2019-02-27T23:19:48.867Z,72.90
2019-02-27T23:22:18.706Z,69.87
2019-02-27T23:24:48.656Z,81.47
2019-02-27T23:27:18.438Z,69.40
2019-02-27T23:29:48.398Z,72.33
2019-02-27T23:32:18.279Z,71.33
2019-02-27T23:34:48.071Z,86.87
2019-02-27T23:37:17.861Z,82.87
2019-02-27T23:39:47.696Z,80.73
2019-02-27T23:42:17.593Z,76.03
2019-02-27T23:44:48.869Z,91.20
2019-02-27T23:47:19.881Z,88.30
2019-02-27T23:49:49.753Z,101.50
2019-02-27T23:52:22.399Z,102.53
2019-02-27T23:54:51.426Z,133.20
2019-02-27T23:57:23.657Z,69.43
2019-02-27T23:59:52.895Z,69.50
